Time;durP1;ratioP1;P1;durP2;ratioP2;P2;SDS_P1;SDS_P2;PMS_P1;PMS_P2;Temp;Humidity;BMP_temperature;BMP_pressure;BME280_temperature;BME280_humidity;BME280_pressure;Samples;Min_cycle;Max_cycle;Signal;HPM_P1;HPM_P2
2023/03/07 00:01:01;;;;;;;45.67;27.27;;;;;;;4.72;71.86;97876.28;5030062;28;20450;-79
2023/03/07 00:03:28;;;;;;;45.15;27.92;;;;;;;4.73;71.91;97873.59;5032436;28;20061;-79
2023/03/07 00:06:06;;;;;;;49.28;27.90;;;;;;;4.71;72.62;97879.84;5033517;28;20402;-79
2023/03/07 00:08:33;;;;;;;43.28;26.70;;;;;;;4.73;71.99;97873.59;5033539;28;20136;-79
2023/03/07 00:11:06;;;;;;;43.25;26.30;;;;;;;4.71;72.87;97859.81;5033680;28;20104;-79
2023/03/07 00:13:34;;;;;;;45.20;26.65;;;;;;;4.74;72.31;97859.59;5016061;28;20056;-78
2023/03/07 00:16:03;;;;;;;42.03;25.75;;;;;;;4.74;72.81;97864.81;5033173;28;20053;-79
2023/03/07 00:18:30;;;;;;;42.28;25.88;;;;;;;4.74;72.86;97864.81;5015869;28;20049;-79
2023/03/07 00:21:04;;;;;;;39.05;23.67;;;;;;;4.73;73.71;97844.91;5033626;28;20053;-79
2023/03/07 00:23:32;;;;;;;41.05;24.38;;;;;;;4.77;72.74;97861.19;5026098;28;20072;-79
2023/03/07 00:26:11;;;;;;;37.83;22.85;;;;;;;4.77;73.11;97851.59;5033068;28;20070;-79
2023/03/07 00:28:38;;;;;;;36.38;22.25;;;;;;;4.80;72.92;97851.41;5026497;28;20128;-79
2023/03/07 00:31:07;;;;;;;37.78;23.58;;;;;;;4.80;73.65;97855.78;5033357;28;20045;-79
2023/03/07 00:33:34;;;;;;;38.10;22.75;;;;;;;4.82;73.20;97854.75;5033284;28;20064;-79
2023/03/07 00:36:06;;;;;;;35.85;21.92;;;;;;;4.86;73.47;97846.75;5032962;28;20041;-79
2023/03/07 00:38:33;;;;;;;34.75;21.98;;;;;;;4.87;73.46;97854.47;5015317;28;20077;-78
2023/03/07 00:41:11;;;;;;;34.45;21.08;;;;;;;4.88;74.29;97839.63;5033184;28;20053;-79
2023/03/07 00:43:38;;;;;;;31.25;19.35;;;;;;;4.92;73.57;97835.91;5026460;28;20476;-78
2023/03/07 00:46:05;;;;;;;28.75;18.23;;;;;;;4.96;73.85;97847.81;5032847;28;20046;-79
2023/03/07 00:48:34;;;;;;;30.17;18.52;;;;;;;4.97;73.95;97841.66;5032546;28;20129;-79
2023/03/07 00:53:39;;;;;;;25.60;16.52;;;;;;;5.03;74.36;97843.03;5011624;28;20505;-78
2023/03/07 00:56:11;;;;;;;26.95;16.75;;;;;;;5.04;74.19;97850.75;5012588;28;20054;-78
2023/03/07 00:58:38;;;;;;;22.30;14.33;;;;;;;5.07;74.60;97824.47;5012582;28;20120;-79
2023/03/07 01:01:06;;;;;;;20.77;14.38;;;;;;;5.13;74.31;97830.22;5013175;28;20348;-76
2023/03/07 01:03:33;;;;;;;25.05;14.60;;;;;;;5.15;74.40;97842.22;5012951;28;20050;-77
2023/03/07 01:06:05;;;;;;;25.48;14.13;;;;;;;5.17;74.87;97835.16;4995109;28;20585;-77
2023/03/07 01:08:32;;;;;;;19.47;12.50;;;;;;;5.21;74.43;97831.38;5012263;28;20061;-78
2023/03/07 01:11:01;;;;;;;18.90;12.60;;;;;;;5.24;74.86;97825.16;5012804;28;20324;-78
2023/03/07 01:13:29;;;;;;;19.55;12.07;;;;;;;5.28;74.48;97823.16;5012475;28;20046;-76
2023/03/07 01:16:05;;;;;;;20.38;12.57;;;;;;;5.30;74.29;97829.94;5012492;28;20088;-77
2023/03/07 01:18:32;;;;;;;19.08;11.45;;;;;;;5.33;74.38;97821.91;4995021;28;20060;-77
2023/03/07 01:20:58;;;;;;;16.48;11.43;;;;;;;5.35;74.28;97806.97;4995112;28;20061;-76
2023/03/07 01:23:25;;;;;;;18.23;11.68;;;;;;;5.39;74.09;97810.25;5012544;28;20054;-77
2023/03/07 01:25:51;;;;;;;18.02;11.30;;;;;;;5.40;74.45;97809.31;5012312;28;20050;-79
2023/03/07 01:28:18;;;;;;;16.55;10.98;;;;;;;5.41;74.30;97804.91;5011989;28;20054;-76
2023/03/07 01:30:44;;;;;;;15.50;10.50;;;;;;;5.45;74.31;97817.66;5012550;28;20050;-76
2023/03/07 01:33:11;;;;;;;15.50;10.77;;;;;;;5.48;74.26;97816.59;5012485;28;20132;-77
2023/03/07 01:35:38;;;;;;;17.77;11.20;;;;;;;5.49;74.44;97810.44;5012011;28;20049;-77
2023/03/07 01:38:05;;;;;;;14.85;10.50;;;;;;;5.53;74.31;97803.25;5011736;28;20056;-77
2023/03/07 01:40:32;;;;;;;14.27;10.50;;;;;;;5.56;74.12;97816.91;5012563;28;20625;-77
2023/03/07 01:43:30;;;;;;;14.73;9.85;;;;;;;5.55;74.67;97806.59;5012404;28;20108;-77
2023/03/07 01:46:15;;;;;;;14.65;9.40;;;;;;;5.58;74.54;97796.75;5011918;28;20649;-77
2023/03/07 01:49:08;;;;;;;12.40;8.80;;;;;;;5.61;74.43;97801.78;5011794;28;20048;-77
2023/03/07 01:51:36;;;;;;;14.43;9.32;;;;;;;5.68;73.99;97793.53;5011121;28;20097;-78
2023/03/07 01:54:07;;;;;;;14.38;9.80;;;;;;;5.69;74.25;97788.19;5012488;28;20133;-79
2023/03/07 01:56:36;;;;;;;13.90;9.57;;;;;;;5.73;73.98;97784.44;5011229;28;20065;-79
2023/03/07 01:59:03;;;;;;;11.18;8.25;;;;;;;5.77;74.05;97774.63;5011963;28;20566;-76
2023/03/07 02:01:30;;;;;;;12.30;8.60;;;;;;;5.82;73.98;97792.56;5011715;28;20064;-77
2023/03/07 02:04:05;;;;;;;13.88;9.18;;;;;;;5.84;74.29;97793.31;5011972;28;20048;-79
2023/03/07 02:06:35;;;;;;;12.68;8.57;;;;;;;5.88;74.17;97786.94;5011704;28;20046;-78
2023/03/07 02:09:04;;;;;;;12.43;8.68;;;;;;;5.92;74.03;97790.16;5011781;28;20495;-78
2023/03/07 02:11:31;;;;;;;11.73;8.30;;;;;;;5.94;73.88;97786.50;5011574;28;20053;-76
2023/03/07 02:13:58;;;;;;;12.77;9.13;;;;;;;5.96;74.10;97779.41;5011607;28;20049;-77
2023/03/07 02:16:24;;;;;;;13.85;8.90;;;;;;;6.00;73.69;97780.03;5014404;28;20050;-79
2023/03/07 02:18:51;;;;;;;15.15;9.27;;;;;;;6.02;73.77;97777.31;4994736;28;20093;-77
2023/03/07 02:21:29;;;;;;;11.77;8.20;;;;;;;6.00;73.52;97780.03;5011466;28;20050;-76
2023/03/07 02:24:10;;;;;;;12.68;8.57;;;;;;;6.02;73.63;97772.91;4993859;28;20148;-77
2023/03/07 02:26:42;;;;;;;10.07;7.30;;;;;;;6.05;73.79;97772.72;5010261;28;20056;-78
2023/03/07 02:29:11;;;;;;;15.18;9.20;;;;;;;6.05;73.70;97777.94;5011482;28;20111;-78
2023/03/07 02:31:37;;;;;;;11.85;8.25;;;;;;;6.05;73.77;97777.94;5011606;28;20125;-77
2023/03/07 02:34:20;;;;;;;11.98;8.90;;;;;;;6.04;73.90;97778.91;5011441;28;20136;-76
2023/03/07 02:36:52;;;;;;;11.88;8.10;;;;;;;6.07;73.87;97776.06;5010261;28;20100;-79
2023/03/07 02:39:20;;;;;;;9.88;7.78;;;;;;;6.07;74.00;97763.00;5011400;28;20084;-77
2023/03/07 02:41:49;;;;;;;10.48;8.45;;;;;;;6.08;74.11;97758.59;5011216;28;20053;-79
2023/03/07 02:44:15;;;;;;;10.68;7.95;;;;;;;6.08;74.24;97766.44;5011174;28;20050;-79
2023/03/07 02:46:42;;;;;;;11.57;8.20;;;;;;;6.07;73.85;97765.63;5010316;28;20050;-77
2023/03/07 02:49:08;;;;;;;12.15;7.72;;;;;;;6.07;73.75;97759.56;5011107;28;20459;-77
2023/03/07 02:51:35;;;;;;;10.23;8.40;;;;;;;6.07;73.80;97749.09;5011277;28;20057;-75
2023/03/07 02:54:02;;;;;;;11.98;8.30;;;;;;;6.05;73.75;97745.78;5011067;28;20480;-81
2023/03/07 02:56:28;;;;;;;11.60;8.63;;;;;;;6.04;73.78;97749.31;4993270;28;20046;-78
2023/03/07 02:58:55;;;;;;;12.65;8.02;;;;;;;6.01;73.93;97752.94;5010761;28;20050;-78
2023/03/07 03:01:21;;;;;;;9.82;8.15;;;;;;;6.02;73.97;97751.19;5011180;28;20148;-78
2023/03/07 03:03:48;;;;;;;11.20;8.18;;;;;;;6.01;73.86;97750.34;5011056;28;20149;-79
2023/03/07 03:06:14;;;;;;;10.50;8.10;;;;;;;6.02;74.06;97748.56;5009449;28;20064;-77
2023/03/07 03:08:41;;;;;;;11.55;8.73;;;;;;;6.02;74.14;97746.78;5010434;28;20054;-77
2023/03/07 03:11:07;;;;;;;8.93;6.90;;;;;;;6.02;74.34;97745.97;5011002;28;20077;-78
2023/03/07 03:13:34;;;;;;;9.95;7.45;;;;;;;6.02;74.31;97757.22;5010883;28;20045;-76
2023/03/07 03:16:04;;;;;;;10.25;7.63;;;;;;;6.03;74.25;97766.78;5010642;28;20054;-78
2023/03/07 03:18:31;;;;;;;9.60;7.10;;;;;;;6.04;73.99;97770.22;5010565;28;20085;-77
2023/03/07 03:20:58;;;;;;;9.02;6.35;;;;;;;6.04;74.05;97778.03;5010488;28;20415;-78
2023/03/07 03:23:27;;;;;;;4.47;3.80;;;;;;;6.01;73.07;97776.47;5010762;28;20483;-76
2023/03/07 03:26:06;;;;;;;3.05;2.67;;;;;;;5.97;71.89;97780.22;5010158;28;20058;-77
2023/03/07 03:28:34;;;;;;;3.47;2.28;;;;;;;5.93;72.01;97784.00;5010200;28;20050;-77
2023/03/07 03:31:07;;;;;;;3.67;2.00;;;;;;;5.84;71.66;97781.06;5010939;28;20049;-76
2023/03/07 03:33:34;;;;;;;;;;;;;;;5.76;70.90;97767.75;5011104;28;20516;-78
2023/03/07 03:36:06;;;;;;;2.00;1.67;;;;;;;5.69;71.67;97775.13;5010179;28;19925;-77
2023/03/07 03:38:33;;;;;;;1.63;1.05;;;;;;;5.64;72.16;97758.16;5014204;28;20050;-77
2023/03/07 03:41:07;;;;;;;4.55;2.00;;;;;;;5.53;72.30;97762.31;5014757;28;20140;-78
2023/03/07 03:43:34;;;;;;;7.18;2.42;;;;;;;5.49;72.78;97760.84;4997320;28;20474;-76
2023/03/07 03:46:00;;;;;;;3.85;2.40;;;;;;;5.44;72.94;97755.97;5014061;28;20108;-79
2023/03/07 03:48:27;;;;;;;5.07;2.22;;;;;;;5.42;73.33;97759.63;5012668;28;20132;-77
2023/03/07 03:51:04;;;;;;;5.38;2.90;;;;;;;5.38;73.06;97763.38;5014296;28;20050;-76
2023/03/07 03:53:33;;;;;;;3.92;2.30;;;;;;;5.38;73.35;97758.97;5014524;28;20060;-77
2023/03/07 03:56:06;;;;;;;3.10;1.90;;;;;;;5.36;73.15;97758.25;5014070;28;20054;-77
2023/03/07 03:58:34;;;;;;;3.17;1.70;;;;;;;5.38;73.31;97758.16;5013918;28;20054;-79
2023/03/07 04:01:04;;;;;;;4.25;1.80;;;;;;;5.36;73.29;97755.66;5014090;28;20046;-77
2023/03/07 04:03:36;;;;;;;3.15;1.75;;;;;;;5.35;73.44;97760.03;4996824;28;20050;-77
2023/03/07 04:06:05;;;;;;;4.35;1.55;;;;;;;5.35;73.58;97761.81;4996356;28;20049;-76
2023/03/07 04:08:33;;;;;;;4.43;1.70;;;;;;;5.37;73.49;97759.06;5013023;28;20060;-76
2023/03/07 04:11:00;;;;;;;2.50;1.90;;;;;;;5.38;73.68;97758.16;5014316;28;20061;-78
2023/03/07 04:13:26;;;;;;;5.18;2.25;;;;;;;5.38;73.53;97766.81;5013720;28;20137;-77
2023/03/07 04:15:53;;;;;;;3.53;2.30;;;;;;;5.39;73.66;97757.22;5013546;28;20129;-77
2023/03/07 04:18:21;;;;;;;5.75;2.42;;;;;;;5.40;73.75;97761.50;5012066;28;20612;-80
2023/03/07 04:20:49;;;;;;;4.68;2.92;;;;;;;5.39;73.88;97752.00;4996550;28;20057;-77
2023/03/07 04:23:20;;;;;;;5.70;3.30;;;;;;;5.40;74.16;97751.91;4996474;28;20056;-76
2023/03/07 04:25:55;;;;;;;7.22;4.13;;;;;;;5.41;73.73;97747.50;5013570;28;20157;-81
2023/03/07 04:31:10;;;;;;;9.13;4.65;;;;;;;5.47;74.28;97747.91;5013616;28;20049;-79
2023/03/07 04:33:37;;;;;;;5.53;4.57;;;;;;;5.50;74.30;97751.25;5013706;28;20529;-77
2023/03/07 04:36:04;;;;;;;8.60;5.03;;;;;;;5.51;74.31;97732.91;5013301;28;20057;-77
2023/03/07 04:38:31;;;;;;;6.95;4.90;;;;;;;5.53;74.65;97741.44;5013202;28;20062;-76
2023/03/07 04:40:57;;;;;;;9.13;5.32;;;;;;;5.54;74.54;97735.31;5013520;28;20046;-78
2023/03/07 04:43:24;;;;;;;9.23;5.35;;;;;;;5.56;74.63;97735.16;4996021;28;20061;-77
2023/03/07 04:45:51;;;;;;;9.60;6.22;;;;;;;5.57;74.49;97734.25;5013185;28;20050;-76
2023/03/07 04:48:18;;;;;;;10.90;5.40;;;;;;;5.59;74.45;97722.75;4994594;28;20042;-78
2023/03/07 04:50:49;;;;;;;8.70;6.05;;;;;;;5.59;74.52;97725.38;5012994;28;20085;-76
2023/03/07 04:53:16;;;;;;;8.27;5.97;;;;;;;5.61;74.50;97723.47;5012989;28;20050;-77
2023/03/07 04:55:43;;;;;;;11.50;6.15;;;;;;;5.64;74.44;97727.66;4995271;28;20503;-76
2023/03/07 04:58:11;;;;;;;7.80;5.75;;;;;;;5.66;74.45;97727.53;5012631;28;20054;-77
2023/03/07 05:00:40;;;;;;;8.30;5.78;;;;;;;5.65;74.30;97726.72;5013358;28;20073;-81
2023/03/07 05:03:08;;;;;;;10.40;6.45;;;;;;;5.67;74.60;97727.44;5012902;28;20050;-78
2023/03/07 05:05:35;;;;;;;11.27;6.28;;;;;;;5.70;74.53;97729.00;5012485;28;20068;-77
2023/03/07 05:08:04;;;;;;;13.52;6.47;;;;;;;5.69;74.62;97725.53;5012254;28;20136;-78
2023/03/07 05:10:32;;;;;;;8.65;5.75;;;;;;;5.73;74.73;97726.19;5012848;28;20053;-79
2023/03/07 05:12:59;;;;;;;8.88;5.93;;;;;;;5.73;74.40;97723.56;4995350;28;20659;-76
2023/03/07 05:15:26;;;;;;;10.18;6.40;;;;;;;5.75;74.48;97719.06;4994895;28;20128;-76
2023/03/07 05:17:53;;;;;;;12.18;6.55;;;;;;;5.77;74.84;97726.78;5012398;28;20050;-78
2023/03/07 05:20:19;;;;;;;10.43;6.07;;;;;;;5.77;74.61;97726.78;5012463;28;20060;-77
2023/03/07 05:22:46;;;;;;;6.65;5.38;;;;;;;5.79;74.35;97727.53;4995188;28;20066;-77
2023/03/07 05:25:13;;;;;;;10.93;5.70;;;;;;;5.79;74.38;97725.75;5012135;28;20384;-77
2023/03/07 05:27:39;;;;;;;10.18;6.18;;;;;;;5.77;74.44;97717.19;5012214;28;20050;-76
2023/03/07 05:30:07;;;;;;;8.77;6.50;;;;;;;5.77;74.34;97713.75;5012399;28;20471;-77
2023/03/07 05:32:33;;;;;;;11.43;6.63;;;;;;;5.77;74.32;97716.34;5012814;28;20053;-76
2023/03/07 05:35:00;;;;;;;10.20;5.95;;;;;;;5.76;74.29;97723.38;5012054;28;20440;-78
2023/03/07 05:37:27;;;;;;;10.20;5.80;;;;;;;5.76;74.14;97715.53;5011975;28;20062;-76
2023/03/07 05:39:54;;;;;;;14.50;5.70;;;;;;;5.75;74.24;97713.84;4995126;28;20053;-77
2023/03/07 05:42:20;;;;;;;8.68;5.97;;;;;;;5.76;74.25;97719.91;5012765;28;20510;-78
2023/03/07 05:44:47;;;;;;;9.20;5.28;;;;;;;5.73;74.14;97715.75;5012244;28;20054;-78
2023/03/07 05:47:13;;;;;;;12.98;5.85;;;;;;;5.71;73.72;97717.59;5010191;28;20046;-77
2023/03/07 05:49:40;;;;;;;6.93;4.82;;;;;;;5.69;73.38;97715.09;5012816;28;20435;-76
2023/03/07 05:52:06;;;;;;;9.15;4.43;;;;;;;5.68;73.72;97708.22;5023087;28;20111;-80
2023/03/07 05:54:33;;;;;;;9.40;4.50;;;;;;;5.66;73.35;97717.94;4996466;28;20062;-77
2023/03/07 05:57:00;;;;;;;8.15;3.80;;;;;;;5.66;73.29;97717.09;5016340;28;20049;-76
2023/03/07 05:59:26;;;;;;;7.90;3.63;;;;;;;5.64;73.19;97716.38;5023039;28;20046;-76
2023/03/07 06:01:53;;;;;;;11.18;3.90;;;;;;;5.62;73.11;97726.94;5018521;28;20069;-81
2023/03/07 06:04:19;;;;;;;7.78;3.50;;;;;;;5.59;73.09;97707.09;5011631;28;20503;-79
2023/03/07 06:06:46;;;;;;;10.00;2.97;;;;;;;5.57;73.03;97706.34;4993503;28;20140;-77
2023/03/07 06:09:12;;;;;;;10.95;3.10;;;;;;;5.54;72.61;97706.59;5012033;28;20041;-78
2023/03/07 06:11:39;;;;;;;7.15;2.95;;;;;;;5.49;72.82;97703.44;5011606;28;20434;-76
2023/03/07 06:14:06;;;;;;;7.30;2.60;;;;;;;5.48;72.72;97704.38;5011826;28;20079;-81
2023/03/07 06:16:32;;;;;;;9.00;2.65;;;;;;;5.46;72.92;97708.91;5010834;28;20045;-80
2023/03/07 06:18:59;;;;;;;10.25;3.40;;;;;;;5.43;72.88;97701.28;5011480;28;20429;-77
2023/03/07 06:21:26;;;;;;;6.47;2.70;;;;;;;5.40;73.00;97706.69;5008749;28;20077;-76
2023/03/07 06:23:52;;;;;;;7.65;2.72;;;;;;;5.39;73.21;97707.63;5011425;28;20096;-78
2023/03/07 06:26:19;;;;;;;9.15;2.80;;;;;;;5.37;73.02;97712.13;5008903;28;20060;-77
2023/03/07 06:28:46;;;;;;;9.20;2.78;;;;;;;5.37;73.12;97712.13;4993351;28;20530;-81
2023/03/07 06:31:15;;;;;;;7.85;2.40;;;;;;;5.35;73.24;97714.84;5014050;28;20053;-77
2023/03/07 06:33:42;;;;;;;6.00;2.63;;;;;;;5.34;73.11;97724.44;5018997;28;20132;-78
2023/03/07 06:36:12;;;;;;;8.18;2.10;;;;;;;5.34;73.34;97718.38;5011116;28;20061;-81
2023/03/07 06:38:39;;;;;;;5.82;1.80;;;;;;;5.34;73.50;97719.22;4993605;28;20046;-78
2023/03/07 06:41:06;;;;;;;5.20;1.90;;;;;;;5.36;73.64;97721.72;5007660;28;20042;-78
2023/03/07 06:43:33;;;;;;;6.47;1.95;;;;;;;5.36;73.54;97724.34;5015844;28;20124;-79
2023/03/07 06:46:00;;;;;;;5.90;1.85;;;;;;;5.38;73.46;97721.63;5021942;28;20049;-80
2023/03/07 06:48:27;;;;;;;8.27;2.28;;;;;;;5.38;73.50;97727.66;5021856;28;20071;-79
2023/03/07 06:50:53;;;;;;;6.53;2.05;;;;;;;5.40;73.49;97738.00;5014206;28;20069;-77
2023/03/07 06:53:20;;;;;;;8.25;2.20;;;;;;;5.40;73.49;97735.41;5040264;22;20107;-80
2023/03/07 06:55:49;;;;;;;4.10;1.42;;;;;;;5.39;72.87;97738.94;5040751;28;20506;-79
2023/03/07 06:58:16;;;;;;;6.15;1.75;;;;;;;5.38;72.81;97737.28;5042046;28;20156;-79
2023/03/07 07:00:43;;;;;;;4.43;1.30;;;;;;;5.36;72.77;97740.00;5028240;28;20124;-79
2023/03/07 07:03:14;;;;;;;2.85;1.50;;;;;;;5.31;72.20;97747.31;5038408;28;20053;-78
2023/03/07 07:05:40;;;;;;;4.72;1.13;;;;;;;5.28;72.22;97750.97;5046784;28;20080;-80
2023/03/07 07:08:07;;;;;;;3.92;1.50;;;;;;;5.24;72.22;97746.88;5048297;28;20107;-80
2023/03/07 07:10:35;;;;;;;4.82;1.42;;;;;;;5.19;72.01;97743.72;5047077;28;20037;-81
2023/03/07 07:13:03;;;;;;;4.68;1.25;;;;;;;5.13;71.57;97750.22;5042360;28;20053;-80
2023/03/07 07:15:31;;;;;;;5.10;1.20;;;;;;;5.07;71.81;97748.00;5043834;28;20052;-79
2023/03/07 07:17:57;;;;;;;5.40;1.23;;;;;;;5.03;71.91;97751.75;5033336;28;20111;-79
2023/03/07 07:20:23;;;;;;;7.05;1.30;;;;;;;4.97;71.87;97752.19;5035147;28;20053;-80
2023/03/07 07:22:50;;;;;;;4.82;1.40;;;;;;;4.92;72.10;97752.47;5040049;28;20056;-80
2023/03/07 07:25:16;;;;;;;4.40;1.23;;;;;;;4.86;72.19;97755.50;5049452;28;20047;-80
2023/03/07 07:27:43;;;;;;;8.77;1.35;;;;;;;4.81;72.40;97758.38;5049243;28;20057;-80
2023/03/07 07:30:10;;;;;;;4.50;1.40;;;;;;;4.78;72.28;97756.81;5049429;28;20041;-79
2023/03/07 07:32:36;;;;;;;4.82;1.30;;;;;;;4.73;72.38;97764.13;5049615;28;20045;-80
2023/03/07 07:35:03;;;;;;;5.80;1.27;;;;;;;4.69;72.47;97770.47;5049056;28;20080;-79
2023/03/07 07:37:30;;;;;;;3.72;1.10;;;;;;;4.67;72.40;97767.09;5049685;28;20148;-79
2023/03/07 07:39:56;;;;;;;4.43;1.17;;;;;;;4.63;72.75;97774.28;5050571;28;20102;-80
2023/03/07 07:42:23;;;;;;;6.63;1.40;;;;;;;4.59;73.02;97772.81;5050255;28;20543;-80
2023/03/07 07:44:50;;;;;;;2.72;0.88;;;;;;;4.57;72.84;97772.09;5049980;28;20044;-80
2023/03/07 07:47:16;;;;;;;4.13;0.82;;;;;;;4.54;73.08;97765.31;5049849;28;20111;-80
2023/03/07 07:49:43;;;;;;;4.30;1.30;;;;;;;4.52;73.23;97763.75;5032449;28;20045;-80
2023/03/07 07:52:09;;;;;;;8.02;1.20;;;;;;;4.52;73.31;97774.97;5049859;28;20049;-80
2023/03/07 07:54:36;;;;;;;4.43;1.35;;;;;;;4.52;73.42;97772.38;5049151;28;20056;-80
2023/03/07 07:57:02;;;;;;;7.20;1.50;;;;;;;4.52;73.59;97774.16;5037742;28;20041;-80
2023/03/07 07:59:30;;;;;;;8.48;1.23;;;;;;;4.53;73.28;97773.22;5041775;28;20056;-79
2023/03/07 08:01:57;;;;;;;2.25;0.82;;;;;;;4.53;73.69;97773.22;5043431;28;20043;-79
2023/03/07 08:04:24;;;;;;;2.97;1.20;;;;;;;4.55;73.74;97771.34;5033386;28;20049;-80
2023/03/07 08:06:51;;;;;;;5.38;0.90;;;;;;;4.56;73.46;97770.41;5040628;28;20040;-80
2023/03/07 08:09:18;;;;;;;4.95;1.00;;;;;;;4.55;73.55;97766.97;5049585;28;20107;-79
2023/03/07 08:11:44;;;;;;;4.45;1.10;;;;;;;4.56;73.47;97773.00;5049981;28;20509;-79
2023/03/07 08:14:11;;;;;;;3.90;1.27;;;;;;;4.56;73.53;97773.84;5050067;28;20056;-80
2023/03/07 08:16:37;;;;;;;3.60;1.13;;;;;;;4.56;73.69;97773.84;5049202;28;20131;-80
2023/03/07 08:19:04;;;;;;;5.60;1.40;;;;;;;4.57;73.64;97774.69;5049908;28;20115;-80
2023/03/07 08:21:30;;;;;;;3.80;1.48;;;;;;;4.56;73.42;97768.66;5008874;28;20057;-80
2023/03/07 08:23:56;;;;;;;4.82;1.85;;;;;;;4.56;73.24;97768.66;5036802;28;20061;-80
2023/03/07 08:26:23;;;;;;;5.80;1.77;;;;;;;4.54;73.14;97769.69;5042263;28;20045;-80
2023/03/07 08:28:50;;;;;;;4.43;1.30;;;;;;;4.55;73.47;97771.34;5043812;28;20041;-79
2023/03/07 08:31:19;;;;;;;6.85;2.38;;;;;;;4.51;73.39;97772.47;5053561;28;20045;-80
2023/03/07 08:33:46;;;;;;;4.28;1.58;;;;;;;4.49;73.18;97762.16;5053441;28;20143;-80
2023/03/07 08:36:13;;;;;;;2.47;1.30;;;;;;;4.47;73.20;97769.25;5053137;28;20049;-80
2023/03/07 08:38:39;;;;;;;7.15;1.52;;;;;;;4.44;73.39;97769.44;5052994;28;20053;-80
2023/03/07 08:41:07;;;;;;;3.78;1.65;;;;;;;4.39;73.43;97772.34;5053446;28;20055;-79
2023/03/07 08:43:35;;;;;;;5.47;1.67;;;;;;;4.36;73.26;97764.72;5053280;28;20091;-80
2023/03/07 08:46:03;;;;;;;7.10;1.75;;;;;;;4.36;73.67;97758.66;5021050;28;20180;-79
2023/03/07 08:48:29;;;;;;;5.07;1.70;;;;;;;4.34;73.60;97763.97;5032751;28;20049;-80
2023/03/07 08:50:56;;;;;;;4.78;1.80;;;;;;;4.33;73.74;97758.88;5033244;28;20041;-79
2023/03/07 08:53:23;;;;;;;5.22;2.03;;;;;;;4.32;73.74;97760.63;5033005;28;20464;-79
2023/03/07 08:55:49;;;;;;;5.03;2.30;;;;;;;4.32;73.85;97759.78;5032905;28;20049;-80
2023/03/07 08:58:16;;;;;;;7.43;2.47;;;;;;;4.31;73.97;97766.78;5032810;28;20123;-79
2023/03/07 09:00:42;;;;;;;5.43;1.60;;;;;;;4.31;73.69;97758.97;5032741;28;20063;-80
2023/03/07 09:03:09;;;;;;;5.65;1.80;;;;;;;4.32;74.09;97759.78;5033216;28;20144;-80
2023/03/07 09:05:37;;;;;;;3.35;1.70;;;;;;;4.30;73.98;97763.34;5032871;28;20049;-79
2023/03/07 09:08:05;;;;;;;3.42;1.90;;;;;;;4.30;73.83;97781.56;5032817;28;20053;-79
2023/03/07 09:10:32;;;;;;;2.85;1.23;;;;;;;4.31;74.16;97777.19;5032784;28;20055;-80
2023/03/07 09:12:59;;;;;;;2.80;1.38;;;;;;;4.30;74.06;97781.56;5015141;28;20148;-79
2023/03/07 09:15:26;;;;;;;6.43;1.60;;;;;;;4.31;74.15;97774.59;5024617;28;20053;-80
2023/03/07 09:17:53;;;;;;;3.47;2.17;;;;;;;4.33;74.55;97779.72;5032642;28;20045;-79
2023/03/07 09:20:19;;;;;;;2.35;1.40;;;;;;;4.35;74.90;97780.44;5032820;28;20053;-80
2023/03/07 09:22:46;;;;;;;2.72;1.58;;;;;;;4.37;74.97;97779.41;5032636;28;20549;-80
2023/03/07 09:25:13;;;;;;;3.45;1.58;;;;;;;4.42;75.03;97779.94;5032482;28;20487;-80
2023/03/07 09:27:40;;;;;;;5.95;1.90;;;;;;;4.46;75.07;97778.00;5032081;28;20056;-80
2023/03/07 09:30:07;;;;;;;6.68;1.98;;;;;;;4.50;75.10;97783.84;5032601;28;20049;-80
2023/03/07 09:32:33;;;;;;;3.17;1.80;;;;;;;4.53;74.60;97778.44;5032500;28;20049;-80
2023/03/07 09:35:00;;;;;;;4.30;1.70;;;;;;;4.55;74.85;97793.03;5032586;28;20077;-80
2023/03/07 09:37:26;;;;;;;4.95;1.67;;;;;;;4.59;74.94;97787.63;5032051;28;20060;-79
2023/03/07 09:39:53;;;;;;;5.82;1.85;;;;;;;4.61;75.01;97785.75;5032262;28;20168;-79
2023/03/07 09:42:53;;;;;;;5.35;1.60;;;;;;;4.61;74.06;97780.53;5050996;28;20060;-80
2023/03/07 09:45:44;;;;;;;3.88;2.03;;;;;;;4.65;73.79;97787.22;5009399;28;20059;-80
2023/03/07 09:48:29;;;;;;;3.45;1.73;;;;;;;4.70;74.39;97790.38;5043645;28;20045;-79
2023/03/07 09:51:20;;;;;;;3.58;1.50;;;;;;;4.68;73.71;97787.84;5032149;28;20049;-80
2023/03/07 09:53:57;;;;;;;2.28;1.20;;;;;;;4.68;73.87;97777.44;5031763;28;20482;-80
2023/03/07 09:56:31;;;;;;;3.58;1.35;;;;;;;4.71;74.50;97783.41;5031957;28;20053;-80
2023/03/07 09:59:21;;;;;;;2.58;1.50;;;;;;;4.70;73.77;97779.94;5031402;28;20092;-80
2023/03/07 10:02:03;;;;;;;2.20;1.40;;;;;;;4.74;74.40;97788.41;5031894;28;20049;-79
2023/03/07 10:05:21;;;;;;;2.95;1.40;;;;;;;4.74;73.61;97789.25;5031689;28;20064;-79
2023/03/07 10:07:48;;;;;;;1.77;1.23;;;;;;;4.78;74.53;97782.88;4998054;28;20054;-79
2023/03/07 10:10:23;;;;;;;2.25;1.27;;;;;;;4.77;74.18;97780.38;5031068;28;20510;-79
2023/03/07 10:13:23;;;;;;;2.67;1.85;;;;;;;4.74;73.81;97786.63;5031648;28;20690;-79
2023/03/07 10:15:59;;;;;;;4.15;1.58;;;;;;;4.80;74.34;97774.97;5031157;28;20512;-79
2023/03/07 10:18:47;;;;;;;4.05;1.55;;;;;;;4.82;74.68;97763.50;5013753;28;20160;-80
2023/03/07 10:21:32;;;;;;;7.55;1.73;;;;;;;4.91;75.71;97771.66;5047264;28;20045;-80
2023/03/07 10:24:13;;;;;;;4.85;1.80;;;;;;;4.95;74.76;97762.72;5050998;28;20107;-79
2023/03/07 10:27:03;;;;;;;4.15;2.10;;;;;;;5.01;74.77;97764.06;5050575;28;20045;-80
2023/03/07 10:29:48;;;;;;;4.50;1.90;;;;;;;5.07;75.07;97767.09;5041568;28;20537;-79
2023/03/07 10:32:38;;;;;;;3.85;1.98;;;;;;;5.15;74.74;97769.19;5051316;28;20098;-80
2023/03/07 10:35:11;;;;;;;2.90;1.85;;;;;;;5.21;75.18;97757.53;5050766;28;20057;-80
2023/03/07 10:37:49;;;;;;;3.20;2.03;;;;;;;5.28;75.61;97757.94;5050943;28;20056;-80
2023/03/07 10:40:22;;;;;;;3.38;1.85;;;;;;;5.36;75.75;97766.09;5051109;28;20136;-80
2023/03/07 10:42:48;;;;;;;;;;;;;;;5.44;74.29;97761.19;5051249;28;20053;-80
2023/03/07 10:45:15;;;;;;;4.28;1.60;;;;;;;5.54;75.64;97769.22;5050627;28;19936;-79
2023/03/07 10:47:42;;;;;;;4.80;1.63;;;;;;;5.56;75.53;97769.94;5049933;28;20048;-79
2023/03/07 10:50:22;;;;;;;3.88;1.60;;;;;;;5.58;74.57;97770.66;5049203;28;20492;-78
2023/03/07 10:53:02;;;;;;;4.43;1.60;;;;;;;5.63;74.61;97772.13;5050602;28;20064;-79
2023/03/07 10:55:40;;;;;;;5.57;1.95;;;;;;;5.67;74.28;97774.44;5050310;28;20053;-79
2023/03/07 10:58:20;;;;;;;3.55;1.55;;;;;;;5.71;74.45;97781.09;5032955;28;20045;-78
2023/03/07 11:01:02;;;;;;;6.28;1.70;;;;;;;5.74;74.24;97783.50;5050826;28;20080;-79
2023/03/07 11:03:40;;;;;;;1.92;1.52;;;;;;;5.77;74.16;97777.25;5050695;28;20052;-79
2023/03/07 11:06:33;;;;;;;4.88;1.60;;;;;;;5.79;74.13;97777.97;5049930;28;20056;-79
2023/03/07 11:09:44;;;;;;;2.15;1.50;;;;;;;5.81;74.39;97783.94;5050358;28;20063;-79
2023/03/07 11:12:17;;;;;;;4.45;1.40;;;;;;;5.88;75.07;97779.09;5050420;28;20081;-80
2023/03/07 11:14:51;;;;;;;5.78;1.45;;;;;;;5.91;75.34;97776.25;5050302;28;20099;-81
2023/03/07 11:17:22;;;;;;;3.83;1.60;;;;;;;5.98;76.08;97776.69;5050007;28;20055;-81
2023/03/07 11:19:56;;;;;;;3.55;1.50;;;;;;;6.03;75.56;97774.63;5050598;28;20501;-81
2023/03/07 11:22:32;;;;;;;6.70;2.28;;;;;;;6.12;76.43;97779.19;5050368;28;20087;-81
2023/03/07 11:25:07;;;;;;;3.72;1.50;;;;;;;6.21;75.80;97779.47;5050212;28;20855;-80
2023/03/07 11:27:54;;;;;;;4.03;1.40;;;;;;;6.25;73.96;97778.31;5050065;28;20440;-79
2023/03/07 11:31:04;;;;;;;7.07;2.08;;;;;;;6.31;72.64;97783.09;5050378;28;20128;-81
2023/03/07 11:33:37;;;;;;;4.25;1.55;;;;;;;6.36;73.51;97780.97;5032980;28;20057;-81
2023/03/07 11:36:31;;;;;;;3.15;1.65;;;;;;;6.36;73.30;97778.38;5050257;28;20146;-81
2023/03/07 11:39:10;;;;;;;2.35;1.48;;;;;;;6.37;74.00;97782.69;5050380;28;20162;-81
2023/03/07 11:41:41;;;;;;;4.32;1.63;;;;;;;6.35;73.70;97781.94;5032823;28;20130;-81
2023/03/07 11:44:21;;;;;;;8.05;1.83;;;;;;;6.30;72.49;97786.66;5050674;28;20047;-81
2023/03/07 11:46:47;;;;;;;7.45;2.05;;;;;;;6.33;74.61;97785.59;5049828;28;20045;-80
2023/03/07 11:49:23;;;;;;;5.45;1.85;;;;;;;6.31;73.57;97790.94;5050239;28;20052;-81
2023/03/07 11:52:00;;;;;;;3.60;1.67;;;;;;;6.34;73.62;97784.66;5050627;28;20087;-80
2023/03/07 11:54:48;;;;;;;6.20;2.15;;;;;;;6.36;73.33;97785.41;5032869;28;20144;-81
2023/03/07 11:57:46;;;;;;;7.47;1.33;;;;;;;6.39;72.83;97785.16;5049972;28;20049;-81
2023/03/07 12:00:18;;;;;;;4.20;1.60;;;;;;;6.43;73.15;97783.19;5054222;28;20075;-81